Time;durP1;ratioP1;P1;durP2;ratioP2;P2;SDS_P1;SDS_P2;PMS_P1;PMS_P2;Temp;Humidity;BMP_temperature;BMP_pressure;BME280_temperature;BME280_humidity;BME280_pressure;Samples;Min_cycle;Max_cycle;Signal;HPM_P1;HPM_P2
2023/12/10 00:00:35;;;;;;;9.77;4.60;;;6.90;99.90;;;;;;4951655;28;20265;-70
2023/12/10 00:03:02;;;;;;;20.37;4.13;;;6.90;99.90;;;;;;4958253;28;20200;-70
2023/12/10 00:05:28;;;;;;;9.63;3.43;;;7.00;99.90;;;;;;4952083;28;20302;-70
2023/12/10 00:07:57;;;;;;;12.17;3.10;;;7.00;99.90;;;;;;4959015;28;20320;-70
2023/12/10 00:10:24;;;;;;;12.70;2.93;;;7.20;99.90;;;;;;4921914;28;20327;-70
2023/12/10 00:12:51;;;;;;;10.03;3.30;;;7.20;99.90;;;;;;4951645;28;20204;-70
2023/12/10 00:15:18;;;;;;;16.57;3.50;;;;;;;;;;4959006;28;20211;-70
2023/12/10 00:17:45;;;;;;;12.23;2.40;;;7.20;99.90;;;;;;4959596;28;20306;-69
2023/12/10 00:20:12;;;;;;;13.73;3.60;;;7.30;99.90;;;;;;4963779;28;20824;-70
2023/12/10 00:22:39;;;;;;;12.30;2.67;;;7.30;99.90;;;;;;4950476;28;20218;-70
2023/12/10 00:25:08;;;;;;;13.00;2.57;;;7.30;99.90;;;;;;4927536;28;21852;-70
2023/12/10 00:27:35;;;;;;;10.65;2.88;;;7.40;99.90;;;;;;4950226;28;21901;-70
2023/12/10 00:30:03;;;;;;;15.70;2.83;;;7.40;99.90;;;;;;4960656;28;20342;-70
2023/12/10 00:32:30;;;;;;;17.10;2.40;;;7.40;99.90;;;;;;4951175;28;20218;-70
2023/12/10 00:34:57;;;;;;;15.73;2.75;;;7.50;99.90;;;;;;4958646;28;20316;-70
2023/12/10 00:37:24;;;;;;;17.10;2.10;;;7.50;99.90;;;;;;4951730;28;20603;-70
2023/12/10 00:39:50;;;;;;;20.70;3.33;;;7.90;99.90;;;;;;4965403;28;20227;-70
2023/12/10 00:42:19;;;;;;;16.00;2.53;;;7.50;99.90;;;;;;4930640;28;20302;-70
2023/12/10 00:44:46;;;;;;;15.60;2.67;;;7.50;99.90;;;;;;4953093;28;20314;-70
2023/12/10 00:47:13;;;;;;;20.80;3.57;;;7.50;99.90;;;;;;4948496;28;20294;-70
2023/12/10 00:49:40;;;;;;;22.17;3.10;;;7.50;99.90;;;;;;4953649;28;20263;-70
2023/12/10 00:52:07;;;;;;;17.30;2.73;;;7.50;99.90;;;;;;4949967;28;20263;-70
2023/12/10 00:54:34;;;;;;;14.63;2.60;;;;;;;;;;4955133;28;20203;-70
2023/12/10 00:57:02;;;;;;;13.70;2.90;;;;;;;;;;4920962;28;20222;-70
2023/12/10 00:59:30;;;;;;;26.53;3.80;;;7.50;99.90;;;;;;4954377;28;20747;-70
2023/12/10 01:01:57;;;;;;;16.27;3.00;;;;;;;;;;4951364;28;20295;-70
2023/12/10 01:04:25;;;;;;;16.33;3.03;;;7.50;99.90;;;;;;4961997;28;20397;-70
2023/12/10 01:06:52;;;;;;;15.90;3.10;;;7.50;99.90;;;;;;4951581;28;20306;-70
2023/12/10 01:09:19;;;;;;;12.83;2.97;;;8.00;99.90;;;;;;4956445;28;20283;-70
2023/12/10 01:11:46;;;;;;;14.83;2.93;;;;;;;;;;4928551;28;20207;-70
2023/12/10 01:14:13;;;;;;;14.73;2.93;;;7.20;99.90;;;;;;4949783;28;20219;-70
2023/12/10 01:16:41;;;;;;;13.23;3.10;;;7.50;99.90;;;;;;4958132;28;20918;-70
2023/12/10 01:19:08;;;;;;;17.07;3.50;;;7.60;99.90;;;;;;4963610;28;20343;-70
2023/12/10 01:21:35;;;;;;;11.53;2.77;;;7.50;99.90;;;;;;4955360;28;20287;-70
2023/12/10 01:24:04;;;;;;;16.77;2.73;;;7.50;99.90;;;;;;4961984;28;20231;-70
2023/12/10 01:26:31;;;;;;;12.77;2.47;;;7.70;99.90;;;;;;4927152;28;20362;-70
2023/12/10 01:28:58;;;;;;;22.57;3.43;;;8.30;99.90;;;;;;4960190;28;20748;-70
2023/12/10 01:31:26;;;;;;;23.43;2.73;;;7.60;99.90;;;;;;4943129;28;21172;-70
2023/12/10 01:33:54;;;;;;;24.37;3.20;;;6.20;99.90;;;;;;4961450;28;20287;-69
2023/12/10 01:36:23;;;;;;;20.90;2.70;;;7.50;99.90;;;;;;4952088;28;20207;-70
2023/12/10 01:38:50;;;;;;;14.27;2.90;;;7.60;99.90;;;;;;4962023;28;20278;-70
2023/12/10 01:41:18;;;;;;;13.53;3.33;;;7.50;99.90;;;;;;4956459;28;20311;-70
2023/12/10 01:43:45;;;;;;;14.90;2.70;;;7.60;99.90;;;;;;4925840;28;20302;-70
2023/12/10 01:46:12;;;;;;;14.88;2.78;;;7.50;99.90;;;;;;4949698;28;20204;-70
2023/12/10 01:48:40;;;;;;;17.97;3.00;;;7.50;99.90;;;;;;4962844;28;20203;-69
2023/12/10 01:51:10;;;;;;;15.93;3.37;;;7.50;99.90;;;;;;4956088;28;20243;-70
2023/12/10 01:53:38;;;;;;;18.20;2.97;;;7.50;99.90;;;;;;4951159;28;20566;-70
2023/12/10 01:56:07;;;;;;;17.35;3.45;;;7.50;99.90;;;;;;4950831;28;20704;-70
2023/12/10 01:58:35;;;;;;;16.23;3.30;;;7.50;99.90;;;;;;4916381;28;21360;-70
2023/12/10 02:01:05;;;;;;;13.43;3.07;;;7.50;99.90;;;;;;4946419;28;20212;-70
2023/12/10 02:03:33;;;;;;;16.87;3.23;;;7.50;99.90;;;;;;4954652;28;20207;-70
2023/12/10 02:06:00;;;;;;;20.20;3.23;;;7.50;99.90;;;;;;4957752;28;20236;-70
2023/12/10 02:08:29;;;;;;;14.57;3.33;;;7.50;99.90;;;;;;4945902;28;20338;-70
2023/12/10 02:10:55;;;;;;;14.73;3.23;;;7.50;99.90;;;;;;4953893;28;20238;-70
2023/12/10 02:13:23;;;;;;;18.93;3.13;;;7.50;99.90;;;;;;4918633;28;20215;-70
2023/12/10 02:15:51;;;;;;;22.90;4.43;;;7.50;99.90;;;;;;4946026;28;20207;-70
2023/12/10 02:18:20;;;;;;;16.47;3.37;;;7.50;99.90;;;;;;4962334;28;20290;-70
2023/12/10 02:20:47;;;;;;;19.17;2.97;;;7.50;99.90;;;;;;4960003;28;20207;-70
2023/12/10 02:23:24;;;;;;;9.97;2.40;;;7.50;99.90;;;;;;4950128;28;20302;-70
2023/12/10 02:25:53;;;;;;;15.37;2.67;;;7.50;99.90;;;;;;4955764;28;20385;-70
2023/12/10 02:28:22;;;;;;;13.17;3.13;;;7.50;99.90;;;;;;4923415;28;20211;-70
2023/12/10 02:30:49;;;;;;;14.50;2.80;;;7.50;99.90;;;;;;4944333;28;20253;-70
2023/12/10 02:33:16;;;;;;;15.32;3.10;;;7.50;99.90;;;;;;4956199;28;20232;-70
2023/12/10 02:35:43;;;;;;;19.47;3.03;;;7.50;99.90;;;;;;4959920;28;20231;-69
2023/12/10 02:38:10;;;;;;;10.82;2.47;;;7.50;99.90;;;;;;4952871;28;20299;-70
2023/12/10 02:40:36;;;;;;;18.27;3.63;;;7.50;99.90;;;;;;4961807;28;20998;-70
2023/12/10 02:43:05;;;;;;;23.77;3.17;;;7.50;99.90;;;;;;4960074;28;20287;-69
2023/12/10 02:45:32;;;;;;;13.27;2.50;;;7.50;99.90;;;;;;4919649;28;20231;-70
2023/12/10 02:47:59;;;;;;;22.03;3.77;;;7.50;99.90;;;;;;4950686;28;20213;-69
2023/12/10 02:50:26;;;;;;;13.47;3.10;;;7.50;99.90;;;;;;4956137;28;22302;-69
2023/12/10 02:52:53;;;;;;;13.87;3.50;;;7.60;99.90;;;;;;4956821;28;20314;-70
2023/12/10 02:55:19;;;;;;;16.73;2.97;;;7.50;99.90;;;;;;4956011;28;20203;-70
2023/12/10 02:57:47;;;;;;;14.50;2.73;;;;;;;;;;4958774;28;20295;-70
2023/12/10 03:00:16;;;;;;;15.63;3.07;;;7.50;99.90;;;;;;4924536;28;20354;-69
2023/12/10 03:02:43;;;;;;;19.83;2.63;;;7.50;99.90;;;;;;4933795;28;20203;-69
2023/12/10 03:05:10;;;;;;;16.73;3.07;;;7.50;99.90;;;;;;4961140;28;20231;-69
2023/12/10 03:07:36;;;;;;;15.10;3.13;;;7.50;99.90;;;;;;4953782;28;20246;-69
2023/12/10 03:10:04;;;;;;;20.40;2.87;;;7.50;99.90;;;;;;4946532;28;20715;-70
2023/12/10 03:12:31;;;;;;;16.67;2.93;;;7.50;99.90;;;;;;4960042;28;20307;-70
2023/12/10 03:14:58;;;;;;;22.27;2.90;;;7.50;99.90;;;;;;4924702;28;20382;-70
2023/12/10 03:17:26;;;;;;;14.63;3.40;;;7.50;99.90;;;;;;4954758;28;20247;-69
2023/12/10 03:19:53;;;;;;;19.50;3.17;;;7.50;99.90;;;;;;4961402;28;20279;-70
2023/12/10 03:22:20;;;;;;;18.33;3.70;;;7.50;99.90;;;;;;4953069;28;20335;-70
2023/12/10 03:24:47;;;;;;;11.93;2.70;;;7.50;99.90;;;;;;4951625;28;20314;-69
2023/12/10 03:27:14;;;;;;;13.40;3.17;;;7.50;99.90;;;;;;4963777;28;20200;-70
2023/12/10 03:29:41;;;;;;;16.70;3.17;;;7.50;99.90;;;;;;4956480;28;20784;-69
2023/12/10 03:32:08;;;;;;;21.87;4.27;;;7.50;99.90;;;;;;4921571;28;20212;-70
2023/12/10 03:34:36;;;;;;;17.27;2.97;;;7.50;99.90;;;;;;4959402;28;20306;-70
2023/12/10 03:37:03;;;;;;;17.43;3.23;;;7.40;99.90;;;;;;4950431;28;20203;-70
2023/12/10 03:39:30;;;;;;;12.20;2.60;;;7.40;99.90;;;;;;4937333;28;20199;-69
2023/12/10 03:41:57;;;;;;;10.27;3.17;;;7.30;99.90;;;;;;4953364;28;20306;-70
2023/12/10 03:44:24;;;;;;;19.27;2.50;;;7.40;99.90;;;;;;4954144;28;20340;-70
2023/12/10 03:46:51;;;;;;;15.57;2.60;;;7.40;99.90;;;;;;4916306;28;20666;-69
2023/12/10 03:49:18;;;;;;;9.30;2.37;;;7.50;99.90;;;;;;4949902;28;20358;-69
2023/12/10 03:51:46;;;;;;;20.00;2.90;;;7.40;99.90;;;;;;4951422;28;20608;-70
2023/12/10 03:54:13;;;;;;;24.47;3.00;;;7.40;99.90;;;;;;4950497;28;20362;-70
2023/12/10 03:56:40;;;;;;;12.47;2.53;;;7.40;99.90;;;;;;4953049;28;20263;-70
2023/12/10 03:59:07;;;;;;;13.27;2.67;;;7.30;99.90;;;;;;4947972;28;20294;-70
2023/12/10 04:01:34;;;;;;;13.67;2.63;;;7.30;99.90;;;;;;4908463;28;20215;-70
2023/12/10 04:04:01;;;;;;;9.53;2.20;;;7.40;99.90;;;;;;4943925;28;20311;-70
2023/12/10 04:06:28;;;;;;;14.07;2.87;;;7.40;99.90;;;;;;4951280;28;20242;-70
2023/12/10 04:08:56;;;;;;;12.63;2.27;;;7.40;99.90;;;;;;4936203;28;20415;-70
2023/12/10 04:11:23;;;;;;;17.90;2.60;;;7.40;99.90;;;;;;4941222;28;20306;-70
2023/12/10 04:13:50;;;;;;;10.07;1.97;;;7.40;99.90;;;;;;4949850;28;20274;-70
2023/12/10 04:16:25;;;;;;;15.83;2.80;;;7.40;99.90;;;;;;4917422;28;20219;-70
2023/12/10 04:18:52;;;;;;;10.80;2.30;;;7.30;99.90;;;;;;4940590;28;20311;-70
2023/12/10 04:21:20;;;;;;;8.53;1.73;;;7.40;99.90;;;;;;4948063;28;20386;-70
2023/12/10 04:23:47;;;;;;;8.90;2.60;;;7.40;99.90;;;;;;4937754;28;20214;-70
2023/12/10 04:26:16;;;;;;;9.67;1.67;;;7.40;99.90;;;;;;4940052;28;20312;-70
2023/12/10 04:28:43;;;;;;;18.67;2.53;;;7.40;99.90;;;;;;4948684;28;20660;-69
2023/12/10 04:31:10;;;;;;;14.47;2.33;;;7.40;99.90;;;;;;4959257;28;20206;-70
2023/12/10 04:33:37;;;;;;;13.10;2.40;;;7.50;99.90;;;;;;4915733;28;20403;-70
2023/12/10 04:36:05;;;;;;;10.17;2.30;;;6.60;99.90;;;;;;4950103;28;20254;-70
2023/12/10 04:38:32;;;;;;;10.40;2.30;;;7.50;99.90;;;;;;4950258;28;20265;-70
2023/12/10 04:40:59;;;;;;;12.23;2.00;;;;;;;;;;4939875;28;20708;-70
2023/12/10 04:43:28;;;;;;;10.27;2.77;;;7.50;99.90;;;;;;4945111;28;20946;-69
2023/12/10 04:45:55;;;;;;;10.13;1.70;;;7.40;99.90;;;;;;4954362;28;20432;-70
2023/12/10 04:48:22;;;;;;;10.10;2.27;;;7.50;99.90;;;;;;4916687;28;20591;-70
2023/12/10 04:50:49;;;;;;;10.20;2.10;;;8.50;99.90;;;;;;4942064;28;20778;-70
2023/12/10 04:53:16;;;;;;;12.37;2.23;;;7.50;99.90;;;;;;4954645;28;20206;-70
2023/12/10 04:55:44;;;;;;;13.43;2.10;;;7.60;99.90;;;;;;4942325;28;20832;-70
2023/12/10 04:58:11;;;;;;;13.30;2.60;;;7.50;99.90;;;;;;4943757;28;20213;-70
2023/12/10 05:00:39;;;;;;;9.43;2.50;;;5.50;99.90;;;;;;4948174;28;20773;-70
2023/12/10 05:03:06;;;;;;;5.80;2.40;;;7.50;99.90;;;;;;4916714;28;20216;-70
2023/12/10 05:05:33;;;;;;;10.00;2.63;;;7.60;99.90;;;;;;4945704;28;20354;-69
2023/12/10 05:08:00;;;;;;;9.27;2.27;;;;;;;;;;4947531;28;20657;-70
2023/12/10 05:10:27;;;;;;;10.33;2.20;;;7.60;99.90;;;;;;4945903;28;20208;-70
2023/12/10 05:12:54;;;;;;;21.40;2.63;;;7.60;99.90;;;;;;4949154;28;20338;-70
2023/12/10 05:15:21;;;;;;;9.70;2.00;;;7.60;99.90;;;;;;4955796;28;20217;-70
2023/12/10 05:17:49;;;;;;;14.07;2.20;;;7.50;99.90;;;;;;4942106;28;20673;-70
2023/12/10 05:20:16;;;;;;;12.00;2.23;;;7.50;99.90;;;;;;4930720;28;20562;-70
2023/12/10 05:22:43;;;;;;;7.60;2.33;;;7.50;99.90;;;;;;4948890;28;20587;-70
2023/12/10 05:25:11;;;;;;;13.97;2.73;;;7.60;99.90;;;;;;4940560;28;20426;-70
2023/12/10 05:27:38;;;;;;;10.90;1.87;;;7.60;99.90;;;;;;4949958;28;20210;-70
2023/12/10 05:30:06;;;;;;;7.80;2.47;;;9.60;99.90;;;;;;4944969;28;20529;-70
2023/12/10 05:32:33;;;;;;;11.30;2.00;;;7.50;99.90;;;;;;4954455;28;20752;-69
2023/12/10 05:35:02;;;;;;;12.93;2.03;;;7.50;99.90;;;;;;4909086;28;20709;-70
2023/12/10 05:37:29;;;;;;;16.43;2.53;;;7.60;99.90;;;;;;4945845;28;20911;-70
2023/12/10 05:39:56;;;;;;;22.23;3.33;;;7.60;99.90;;;;;;4951594;28;20195;-70
2023/12/10 05:42:23;;;;;;;9.97;2.20;;;7.60;99.90;;;;;;4931538;28;20342;-69
2023/12/10 05:44:50;;;;;;;7.87;1.77;;;7.50;99.90;;;;;;4947436;28;20799;-70
2023/12/10 05:47:17;;;;;;;10.27;1.93;;;7.60;99.90;;;;;;4952148;28;20223;-69
2023/12/10 05:49:44;;;;;;;8.17;2.07;;;7.60;99.90;;;;;;4920844;28;20232;-70
2023/12/10 05:52:12;;;;;;;4.80;1.50;;;7.30;99.90;;;;;;4950284;28;20215;-69
2023/12/10 05:54:39;;;;;;;6.77;1.70;;;7.50;99.90;;;;;;4946273;28;20525;-69
2023/12/10 05:57:06;;;;;;;9.85;1.90;;;7.50;99.90;;;;;;4950133;28;20297;-69
2023/12/10 05:59:33;;;;;;;6.23;1.57;;;7.40;99.90;;;;;;4949370;28;20247;-69
2023/12/10 06:02:00;;;;;;;8.93;2.37;;;7.50;99.90;;;;;;4948940;28;20317;-69
2023/12/10 06:04:27;;;;;;;6.33;2.33;;;7.50;99.90;;;;;;4918984;28;20215;-70
2023/12/10 06:06:55;;;;;;;8.60;1.87;;;7.40;99.90;;;;;;4955125;28;20286;-70
2023/12/10 06:09:23;;;;;;;7.87;2.07;;;7.50;99.90;;;;;;4942995;28;20235;-70
2023/12/10 06:11:50;;;;;;;6.47;2.20;;;7.50;99.90;;;;;;4944069;28;20414;-70
2023/12/10 06:14:17;;;;;;;7.90;1.60;;;7.50;99.90;;;;;;4943950;28;20207;-69
2023/12/10 06:16:44;;;;;;;8.37;2.17;;;7.50;99.90;;;;;;4952542;28;20295;-70
2023/12/10 06:19:11;;;;;;;4.83;1.90;;;7.50;99.90;;;;;;4952883;28;20229;-70
2023/12/10 06:21:38;;;;;;;6.67;1.87;;;7.50;99.90;;;;;;4924835;28;20468;-70
2023/12/10 06:24:05;;;;;;;4.50;1.40;;;7.40;99.90;;;;;;4946665;28;21083;-70
2023/12/10 06:26:34;;;;;;;3.80;1.40;;;7.50;99.90;;;;;;4949900;28;20427;-70
2023/12/10 06:29:00;;;;;;;5.90;1.10;;;7.50;99.90;;;;;;4937944;28;20427;-70
2023/12/10 06:31:27;;;;;;;9.33;1.13;;;7.50;99.90;;;;;;4934138;28;20204;-70
2023/12/10 06:33:54;;;;;;;6.80;1.70;;;7.50;99.90;;;;;;4943848;28;20200;-70
2023/12/10 06:36:21;;;;;;;6.83;1.40;;;7.50;99.90;;;;;;4916134;28;20214;-70
2023/12/10 06:38:48;;;;;;;9.50;1.50;;;7.60;99.90;;;;;;4959895;28;21549;-70
2023/12/10 06:41:15;;;;;;;7.97;1.33;;;7.70;99.90;;;;;;4942095;28;20298;-70
2023/12/10 06:43:43;;;;;;;5.37;1.37;;;7.50;99.90;;;;;;4937452;28;20204;-70
2023/12/10 06:46:13;;;;;;;3.17;1.23;;;7.50;99.90;;;;;;4932202;28;20676;-70
2023/12/10 06:48:40;;;;;;;11.37;1.83;;;7.50;99.90;;;;;;4942454;28;20711;-70
2023/12/10 06:51:07;;;;;;;5.37;1.43;;;6.20;99.90;;;;;;4923645;28;20318;-70
2023/12/10 06:53:34;;;;;;;3.57;1.80;;;7.50;99.90;;;;;;4925285;28;20261;-70
2023/12/10 06:56:01;;;;;;;5.27;1.27;;;7.50;99.90;;;;;;4931708;28;20246;-69
2023/12/10 06:58:28;;;;;;;5.50;1.30;;;7.50;99.90;;;;;;4938949;28;20648;-70
2023/12/10 07:00:57;;;;;;;8.10;1.70;;;7.60;99.90;;;;;;4944615;28;20353;-70
2023/12/10 07:03:24;;;;;;;3.47;1.30;;;7.60;99.90;;;;;;4947466;28;20508;-70
2023/12/10 07:05:51;;;;;;;4.70;1.60;;;7.50;99.90;;;;;;4949136;28;20541;-70
2023/12/10 07:08:17;;;;;;;7.03;1.80;;;7.60;99.90;;;;;;4912400;28;20309;-70
2023/12/10 07:10:45;;;;;;;4.00;1.40;;;7.60;99.90;;;;;;4947142;28;20300;-70
2023/12/10 07:13:11;;;;;;;5.83;1.60;;;7.50;99.90;;;;;;4942092;28;20359;-70
2023/12/10 07:15:38;;;;;;;5.17;1.60;;;7.70;99.90;;;;;;4944535;28;20227;-70
2023/12/10 07:18:07;;;;;;;7.23;1.53;;;7.60;99.90;;;;;;4949624;28;20418;-70
2023/12/10 07:20:34;;;;;;;4.60;1.20;;;7.60;99.90;;;;;;4954211;28;20490;-70
2023/12/10 07:23:00;;;;;;;8.37;1.47;;;7.60;99.90;;;;;;4919617;28;20212;-70
2023/12/10 07:25:27;;;;;;;4.00;1.45;;;7.60;99.90;;;;;;4958568;28;20866;-70
2023/12/10 07:27:54;;;;;;;2.80;1.60;;;7.60;99.90;;;;;;4952680;28;20286;-70
2023/12/10 07:30:21;;;;;;;4.93;1.83;;;7.70;99.90;;;;;;4935925;28;20342;-70
2023/12/10 07:32:48;;;;;;;5.77;2.00;;;7.60;99.90;;;;;;4961492;28;20626;-70
2023/12/10 07:35:16;;;;;;;7.23;2.23;;;7.70;99.90;;;;;;4938652;28;20946;-69
2023/12/10 07:37:43;;;;;;;5.40;2.05;;;7.70;99.90;;;;;;4918809;28;20207;-70
2023/12/10 07:40:12;;;;;;;2.63;1.20;;;7.70;99.90;;;;;;4944710;28;20326;-70
2023/12/10 07:42:39;;;;;;;2.60;1.03;;;7.80;99.90;;;;;;4940915;28;20639;-70
2023/12/10 07:45:07;;;;;;;2.70;1.20;;;7.80;99.90;;;;;;4937547;28;20200;-70
2023/12/10 07:47:33;;;;;;;4.67;1.20;;;7.80;99.90;;;;;;4948314;28;20329;-70
2023/12/10 07:50:00;;;;;;;6.57;1.30;;;7.70;99.90;;;;;;4946992;28;20318;-70
2023/12/10 07:52:29;;;;;;;1.93;1.07;;;7.70;99.90;;;;;;4950748;28;20243;-70
2023/12/10 07:54:55;;;;;;;5.33;1.40;;;7.70;99.90;;;;;;4909932;28;20242;-70
2023/12/10 07:57:22;;;;;;;3.03;1.10;;;7.80;99.90;;;;;;4946385;28;20399;-70
2023/12/10 07:59:49;;;;;;;8.37;1.70;;;7.70;99.90;;;;;;4938670;28;20314;-70
2023/12/10 08:02:16;;;;;;;2.90;1.10;;;7.80;99.90;;;;;;4903502;28;20214;-70
2023/12/10 08:04:43;;;;;;;4.13;1.00;;;7.80;99.90;;;;;;4938295;28;20272;-70
2023/12/10 08:07:10;;;;;;;3.93;1.07;;;7.80;99.90;;;;;;4937125;28;20794;-70
2023/12/10 08:09:38;;;;;;;2.57;0.70;;;7.80;99.90;;;;;;4906444;28;20406;-70
2023/12/10 08:12:06;;;;;;;1.67;0.70;;;7.80;99.90;;;;;;4946596;28;20350;-70
2023/12/10 08:14:33;;;;;;;3.80;0.57;;;8.00;99.90;;;;;;4944748;28;20396;-70
2023/12/10 08:17:00;;;;;;;0.43;0.40;;;7.90;99.90;;;;;;4946533;28;20199;-70
2023/12/10 08:19:27;;;;;;;1.47;0.70;;;8.00;99.90;;;;;;4935861;28;20206;-70
2023/12/10 08:21:54;;;;;;;3.53;1.10;;;7.90;99.90;;;;;;4942665;28;20203;-70
2023/12/10 08:24:21;;;;;;;3.30;0.70;;;7.90;99.90;;;;;;4909463;28;20335;-70
2023/12/10 08:26:49;;;;;;;1.52;0.57;;;8.00;99.90;;;;;;4955051;28;20310;-70
2023/12/10 08:29:16;;;;;;;2.00;0.93;;;;;;;;;;4950846;28;20287;-70
2023/12/10 08:31:43;;;;;;;1.17;0.60;;;8.00;99.90;;;;;;4931774;28;20224;-70
2023/12/10 08:34:10;;;;;;;3.17;0.70;;;7.80;99.90;;;;;;4931039;28;20361;-70
2023/12/10 08:36:37;;;;;;;0.67;0.43;;;8.00;99.90;;;;;;4933815;28;20802;-70
2023/12/10 08:39:04;;;;;;;1.60;0.70;;;8.00;99.90;;;;;;4953762;28;20319;-70
2023/12/10 08:41:32;;;;;;;3.63;1.17;;;8.10;99.90;;;;;;4901089;28;21005;-70
2023/12/10 08:44:00;;;;;;;2.03;1.35;;;8.10;99.90;;;;;;4950902;28;20282;-70
2023/12/10 08:46:27;;;;;;;2.13;1.10;;;8.10;99.90;;;;;;4939709;28;20231;-70
2023/12/10 08:48:55;;;;;;;1.80;0.77;;;8.10;99.90;;;;;;4960426;28;20635;-70
2023/12/10 08:51:22;;;;;;;6.40;1.00;;;8.10;99.90;;;;;;4918732;28;20751;-70
2023/12/10 08:53:49;;;;;;;4.70;1.10;;;8.10;99.90;;;;;;4952140;28;20219;-70
2023/12/10 08:56:16;;;;;;;2.30;0.68;;;;;;;;;;4901241;28;20207;-70
2023/12/10 08:58:43;;;;;;;1.60;0.87;;;8.10;99.90;;;;;;4954253;28;20575;-70
2023/12/10 09:01:11;;;;;;;2.75;0.93;;;8.10;99.90;;;;;;4956160;28;20725;-70
2023/12/10 09:03:42;;;;;;;7.03;0.93;;;8.20;99.90;;;;;;4908401;28;20551;-70
2023/12/10 09:06:09;;;;;;;5.95;0.60;;;8.20;99.90;;;;;;4929139;28;20227;-69
2023/12/10 09:08:36;;;;;;;2.08;1.05;;;8.20;99.90;;;;;;4934065;28;28636;-70
2023/12/10 09:11:04;;;;;;;3.65;0.80;;;8.20;99.90;;;;;;4909074;28;21223;-70
2023/12/10 09:13:31;;;;;;;1.40;0.82;;;8.20;99.90;;;;;;4934412;28;20203;-70
2023/12/10 09:15:58;;;;;;;5.03;1.10;;;8.10;99.90;;;;;;4946880;28;25684;-70
2023/12/10 09:18:27;;;;;;;5.93;1.67;;;8.20;99.90;;;;;;4912050;28;20314;-70
2023/12/10 09:20:54;;;;;;;4.32;1.50;;;8.20;99.90;;;;;;4940639;28;20548;-70
2023/12/10 09:23:21;;;;;;;4.80;1.53;;;8.20;99.90;;;;;;4937119;28;20774;-70
2023/12/10 09:25:48;;;;;;;5.93;1.58;;;8.20;99.90;;;;;;4954712;28;20214;-70
2023/12/10 09:28:15;;;;;;;3.72;1.27;;;8.30;99.90;;;;;;4905189;28;20325;-70
2023/12/10 09:30:42;;;;;;;11.30;1.75;;;8.20;99.90;;;;;;4948031;28;20223;-70
2023/12/10 09:33:10;;;;;;;10.40;2.03;;;8.20;99.90;;;;;;4944931;28;20297;-70
2023/12/10 09:35:39;;;;;;;9.07;1.43;;;8.20;99.90;;;;;;4931885;28;20208;-70
2023/12/10 09:38:06;;;;;;;8.52;1.70;;;8.20;99.90;;;;;;4944052;28;20559;-70
2023/12/10 09:40:33;;;;;;;15.50;2.00;;;8.20;99.90;;;;;;4948602;28;20669;-70
2023/12/10 09:43:01;;;;;;;9.55;1.60;;;8.70;99.90;;;;;;4900581;28;20208;-69
2023/12/10 09:45:28;;;;;;;10.93;2.03;;;8.20;99.90;;;;;;4950699;28;20269;-70
2023/12/10 09:47:55;;;;;;;14.00;2.08;;;8.20;99.90;;;;;;4933536;28;20400;-70
2023/12/10 09:50:24;;;;;;;8.57;2.30;;;8.20;99.90;;;;;;4923676;28;20275;-70
2023/12/10 09:52:53;;;;;;;7.63;2.17;;;8.30;99.90;;;;;;4917582;28;20305;-70
2023/12/10 09:55:20;;;;;;;8.10;2.22;;;8.60;99.90;;;;;;4914085;28;20265;-69
2023/12/10 09:57:48;;;;;;;10.75;2.72;;;8.40;99.90;;;;;;4892178;28;20216;-70
2023/12/10 10:00:16;;;;;;;8.88;1.88;;;8.30;99.90;;;;;;4940117;28;20223;-70
2023/12/10 10:02:43;;;;;;;7.00;1.88;;;9.70;99.90;;;;;;4950543;28;20215;-70
2023/12/10 10:05:10;;;;;;;5.30;1.98;;;8.40;99.90;;;;;;4943510;28;20430;-70
2023/12/10 10:07:37;;;;;;;6.97;1.90;;;8.40;99.90;;;;;;4938552;28;20238;-70
2023/12/10 10:10:10;;;;;;;7.97;2.13;;;8.50;99.90;;;;;;4929359;28;20221;-70
2023/12/10 10:12:37;;;;;;;14.88;2.40;;;8.50;99.90;;;;;;4958538;28;20226;-70
2023/12/10 10:15:05;;;;;;;10.20;2.33;;;8.50;99.90;;;;;;4882182;28;21012;-70
2023/12/10 10:17:34;;;;;;;8.57;1.63;;;8.50;99.90;;;;;;4945600;28;21017;-70
2023/12/10 10:20:04;;;;;;;11.82;2.20;;;8.50;99.90;;;;;;4923813;28;20363;-70
2023/12/10 10:22:31;;;;;;;12.55;2.03;;;8.50;99.90;;;;;;4937724;28;20210;-70
2023/12/10 10:24:59;;;;;;;12.63;3.00;;;8.70;99.90;;;;;;4939666;28;20606;-70
2023/12/10 10:27:28;;;;;;;7.25;2.50;;;8.60;99.90;;;;;;4942952;28;20224;-70
2023/12/10 10:29:54;;;;;;;5.03;1.65;;;8.60;99.90;;;;;;4906856;28;20222;-70
2023/12/10 10:32:22;;;;;;;6.32;1.77;;;8.70;99.90;;;;;;4940791;28;20247;-70
2023/12/10 10:34:50;;;;;;;9.23;1.90;;;8.40;99.90;;;;;;4950637;28;20274;-70
2023/12/10 10:37:18;;;;;;;9.75;1.77;;;8.30;99.90;;;;;;4918452;28;23146;-70
2023/12/10 10:39:46;;;;;;;7.22;1.65;;;8.60;99.90;;;;;;4945094;28;20210;-70
2023/12/10 10:42:13;;;;;;;9.82;1.77;;;8.70;99.90;;;;;;4947968;28;20207;-70
2023/12/10 10:44:42;;;;;;;5.95;1.33;;;8.70;99.90;;;;;;4917342;28;20219;-70
2023/12/10 10:47:09;;;;;;;13.82;2.33;;;8.70;99.90;;;;;;4944303;28;20236;-70
2023/12/10 10:49:39;;;;;;;5.18;1.50;;;8.70;99.90;;;;;;4917324;28;1130514;-70
2023/12/10 10:52:10;;;;;;;8.60;1.73;;;7.90;99.90;;;;;;4925940;28;20736;-70
2023/12/10 10:54:37;;;;;;;4.22;1.00;;;8.60;99.90;;;;;;4933544;28;20207;-70
2023/12/10 10:57:05;;;;;;;3.80;1.17;;;8.30;99.90;;;;;;4940204;28;20878;-70
2023/12/10 10:59:33;;;;;;;2.80;0.90;;;8.50;99.90;;;;;;4960033;28;20226;-70
2023/12/10 11:02:03;;;;;;;6.50;0.90;;;8.50;99.90;;;;;;4919282;28;20219;-70
2023/12/10 11:04:39;;;;;;;4.05;0.90;;;8.50;99.90;;;;;;4955783;28;20227;-70
2023/12/10 11:07:06;;;;;;;3.58;0.52;;;8.90;99.90;;;;;;4930290;28;20226;-70
2023/12/10 11:09:33;;;;;;;4.38;0.82;;;8.50;99.90;;;;;;4942749;28;20234;-70
2023/12/10 11:12:00;;;;;;;4.03;0.85;;;8.50;99.90;;;;;;4928519;28;20230;-70
2023/12/10 11:14:32;;;;;;;1.85;0.70;;;8.60;99.90;;;;;;4939267;28;20223;-70
2023/12/10 11:17:05;;;;;;;5.28;1.35;;;8.60;99.90;;;;;;4917899;28;20331;-70
2023/12/10 11:19:33;;;;;;;5.40;1.00;;;8.60;99.90;;;;;;4943081;28;20227;-70
2023/12/10 11:22:01;;;;;;;6.00;0.80;;;8.60;99.90;;;;;;4925886;28;20227;-70
2023/12/10 11:24:28;;;;;;;1.05;0.60;;;8.60;99.90;;;;;;4941339;28;20255;-70
2023/12/10 11:26:55;;;;;;;2.63;0.60;;;8.80;99.90;;;;;;4935132;28;20223;-70
2023/12/10 11:29:22;;;;;;;2.85;0.45;;;8.50;99.90;;;;;;4942261;28;20224;-70
2023/12/10 11:31:49;;;;;;;1.52;0.50;;;8.40;99.90;;;;;;4916996;28;20228;-70
2023/12/10 11:34:17;;;;;;;1.17;0.40;;;8.60;99.90;;;;;;4949033;28;20206;-70
2023/12/10 11:36:48;;;;;;;1.27;0.40;;;8.60;99.90;;;;;;4926675;28;20735;-70
2023/12/10 11:39:15;;;;;;;2.40;0.43;;;8.70;99.90;;;;;;4939753;28;20235;-70
2023/12/10 11:41:43;;;;;;;0.13;0.13;;;8.50;99.90;;;;;;4936475;28;20215;-70
2023/12/10 11:44:11;;;;;;;0.85;0.52;;;8.60;99.90;;;;;;4934433;28;20235;-70
2023/12/10 11:46:38;;;;;;;0.73;0.45;;;8.60;99.90;;;;;;4914260;28;21000;-70
2023/12/10 11:49:08;;;;;;;3.42;0.95;;;8.60;99.90;;;;;;4942249;28;20246;-70
2023/12/10 11:51:40;;;;;;;2.75;0.68;;;8.60;99.90;;;;;;4931050;28;21022;-70
2023/12/10 11:54:07;;;;;;;0.93;0.60;;;8.60;99.90;;;;;;4939840;28;20242;-70
2023/12/10 11:56:34;;;;;;;4.93;1.00;;;8.50;99.90;;;;;;4941201;28;21650;-70
2023/12/10 11:59:02;;;;;;;2.78;0.90;;;8.50;99.90;;;;;;4949275;28;20231;-70
2023/12/10 12:01:31;;;;;;;5.78;0.85;;;8.50;99.90;;;;;;4940742;28;20224;-70
2023/12/10 12:03:58;;;;;;;2.67;0.88;;;8.50;99.90;;;;;;4915149;28;20227;-70
2023/12/10 12:06:42;;;;;;;2.08;0.70;;;8.40;99.90;;;;;;4936767;28;20234;-70
2023/12/10 12:09:13;;;;;;;0.98;0.70;;;8.60;99.90;;;;;;4957125;28;20373;-70
2023/12/10 12:11:41;;;;;;;2.47;0.55;;;;;;;;;;4938888;28;20227;-70
2023/12/10 12:14:14;;;;;;;3.75;0.90;;;8.60;99.90;;;;;;4938830;28;20220;-70
2023/12/10 12:16:41;;;;;;;2.53;0.65;;;8.50;99.90;;;;;;4951159;28;20234;-70
2023/12/10 12:19:08;;;;;;;1.63;0.70;;;8.50;99.90;;;;;;4923599;28;20241;-70
2023/12/10 12:21:35;;;;;;;3.05;0.85;;;8.50;99.90;;;;;;4952939;28;20200;-70
2023/12/10 12:24:03;;;;;;;0.70;0.70;;;8.60;99.90;;;;;;4934436;28;20228;-70
2023/12/10 12:26:30;;;;;;;1.65;0.70;;;8.50;99.90;;;;;;4919894;28;20207;-70
2023/12/10 12:28:56;;;;;;;1.20;0.50;;;8.50;99.90;;;;;;4933321;28;20395;-70
2023/12/10 12:31:23;;;;;;;4.25;0.70;;;8.50;99.90;;;;;;4930573;28;20219;-70
2023/12/10 12:33:50;;;;;;;2.38;0.55;;;8.50;99.90;;;;;;4905627;28;20700;-70
2023/12/10 12:36:17;;;;;;;2.80;0.80;;;8.50;99.90;;;;;;4948956;28;20219;-70
2023/12/10 12:38:45;;;;;;;3.15;0.73;;;8.60;99.90;;;;;;4934455;28;20204;-70
2023/12/10 12:41:14;;;;;;;1.02;0.63;;;8.50;99.90;;;;;;4943375;28;21987;-70
2023/12/10 12:43:41;;;;;;;1.88;0.82;;;8.50;99.90;;;;;;4917792;28;20207;-70
2023/12/10 12:46:08;;;;;;;4.20;1.00;;;8.50;99.90;;;;;;4938145;28;20317;-70
2023/12/10 12:48:35;;;;;;;1.58;0.90;;;8.40;99.90;;;;;;4909661;28;20661;-70
2023/12/10 12:51:02;;;;;;;3.80;1.02;;;8.50;99.90;;;;;;4943091;28;20670;-70
2023/12/10 12:53:28;;;;;;;3.33;1.17;;;8.50;99.90;;;;;;4953413;28;20210;-70
2023/12/10 12:55:55;;;;;;;3.28;0.98;;;8.40;99.90;;;;;;4936863;28;20410;-70